createdAt,value
2022-09-23T00:00:11.052Z,6.80
2022-09-23T00:01:10.196Z,7.90
2022-09-23T00:02:10.226Z,5.30
2022-09-23T00:03:10.143Z,6.80
2022-09-23T00:04:10.202Z,4.50
2022-09-23T00:05:10.101Z,7.20
2022-09-23T00:06:10.135Z,4.60
2022-09-23T00:07:10.083Z,7.00
2022-09-23T00:08:10.062Z,7.80
2022-09-23T00:09:10.052Z,6.60
2022-09-23T00:10:10.056Z,7.40
2022-09-23T00:11:09.984Z,5.60
2022-09-23T00:12:10.049Z,5.90
2022-09-23T00:13:10.012Z,3.80
2022-09-23T00:14:10.004Z,4.60
2022-09-23T00:15:10.748Z,5.20
2022-09-23T00:16:09.990Z,4.10
2022-09-23T00:17:09.963Z,4.20
2022-09-23T00:18:09.958Z,3.60
2022-09-23T00:19:10.648Z,5.60
2022-09-23T00:20:09.932Z,5.10
2022-09-23T00:21:09.936Z,6.30
2022-09-23T00:22:09.896Z,6.20
2022-09-23T00:23:09.905Z,4.30
2022-09-23T00:24:09.896Z,7.00
2022-09-23T00:25:10.636Z,5.40
2022-09-23T00:26:09.838Z,5.70
2022-09-23T00:27:10.876Z,6.20
2022-09-23T00:28:09.848Z,4.00
2022-09-23T00:29:09.834Z,5.30
2022-09-23T00:30:09.818Z,4.20
2022-09-23T00:31:09.869Z,6.60
2022-09-23T00:32:09.858Z,5.20
2022-09-23T00:33:09.774Z,6.20
2022-09-23T00:34:09.742Z,4.90
2022-09-23T00:35:09.766Z,4.60
2022-09-23T00:36:09.750Z,4.70
2022-09-23T00:37:09.790Z,7.20
2022-09-23T00:38:09.707Z,4.10
2022-09-23T00:39:09.693Z,4.60
2022-09-23T00:40:09.763Z,3.80
2022-09-23T00:41:09.673Z,5.50
2022-09-23T00:42:09.708Z,6.50
2022-09-23T00:43:10.269Z,5.70
2022-09-23T00:44:09.670Z,7.00
2022-09-23T00:45:09.675Z,4.20
2022-09-23T00:46:09.891Z,3.70
2022-09-23T00:47:09.842Z,4.50
2022-09-23T00:48:09.620Z,4.10
2022-09-23T00:49:09.606Z,5.10
2022-09-23T00:50:09.587Z,4.70
2022-09-23T00:51:09.818Z,4.20
2022-09-23T00:52:09.712Z,5.50
2022-09-23T00:53:09.698Z,5.10
2022-09-23T00:54:09.927Z,6.00
2022-09-23T00:55:09.531Z,3.90
2022-09-23T00:56:10.393Z,8.00
2022-09-23T00:57:09.539Z,4.70
2022-09-23T00:58:09.590Z,4.70
2022-09-23T00:59:09.547Z,4.30
2022-09-23T01:00:10.299Z,4.90
2022-09-23T01:01:09.508Z,3.00
2022-09-23T01:02:09.560Z,4.60
2022-09-23T01:03:09.470Z,5.70
2022-09-23T01:04:09.492Z,4.50
2022-09-23T01:05:09.423Z,4.40
2022-09-23T01:06:09.404Z,5.60
2022-09-23T01:07:09.427Z,6.30
2022-09-23T01:08:09.395Z,7.70
2022-09-23T01:09:09.376Z,6.40
2022-09-23T01:10:10.256Z,5.80
2022-09-23T01:11:09.417Z,4.30
2022-09-23T01:12:09.316Z,6.70
2022-09-23T01:13:09.320Z,5.90
2022-09-23T01:14:09.395Z,4.90
2022-09-23T01:15:09.296Z,3.30
2022-09-23T01:16:09.288Z,5.20
2022-09-23T01:17:10.239Z,6.60
2022-09-23T01:18:10.221Z,7.30
2022-09-23T01:19:10.251Z,8.70
2022-09-23T01:20:09.324Z,6.30
2022-09-23T01:21:09.284Z,4.40
2022-09-23T01:22:11.082Z,6.90
2022-09-23T01:23:09.211Z,6.00
2022-09-23T01:24:10.777Z,7.40
2022-09-23T01:25:09.559Z,10.20
2022-09-23T01:26:41.582Z,5.60
2022-09-23T01:27:09.167Z,4.30
2022-09-23T01:28:09.140Z,4.60
2022-09-23T01:29:09.249Z,4.30
2022-09-23T01:30:09.712Z,6.00
2022-09-23T01:31:09.509Z,6.40
2022-09-23T01:32:09.121Z,6.00
2022-09-23T01:33:10.121Z,7.30
2022-09-23T01:34:09.072Z,6.60
2022-09-23T01:35:09.132Z,5.10
2022-09-23T01:36:09.110Z,9.20
2022-09-23T01:37:09.079Z,5.10
2022-09-23T01:38:09.020Z,8.10
2022-09-23T01:39:10.115Z,7.90
2022-09-23T01:40:09.169Z,6.80
2022-09-23T01:41:09.048Z,7.00
2022-09-23T01:42:09.016Z,7.20
2022-09-23T01:43:08.958Z,5.50
2022-09-23T01:44:08.957Z,5.20
2022-09-23T01:45:09.026Z,8.70
2022-09-23T01:46:09.086Z,7.70
2022-09-23T01:47:08.949Z,7.10
2022-09-23T01:48:08.953Z,5.80
2022-09-23T01:49:08.945Z,6.00
2022-09-23T01:50:09.626Z,6.10
2022-09-23T01:51:08.903Z,6.40
2022-09-23T01:52:08.874Z,4.60
2022-09-23T01:53:08.877Z,5.10
2022-09-23T01:54:08.889Z,5.50
2022-09-23T01:55:08.845Z,4.80
2022-09-23T01:56:08.849Z,6.90
2022-09-23T01:57:08.818Z,9.00
2022-09-23T01:58:08.798Z,7.10
2022-09-23T01:59:08.795Z,8.20
2022-09-23T02:00:08.817Z,8.40
2022-09-23T02:01:08.910Z,10.40
2022-09-23T02:02:08.857Z,6.80
2022-09-23T02:03:08.767Z,5.80
2022-09-23T02:04:08.760Z,7.00
2022-09-23T02:05:08.727Z,5.80
2022-09-23T02:06:08.751Z,5.10
2022-09-23T02:07:08.737Z,9.40
2022-09-23T02:08:08.693Z,5.20
2022-09-23T02:09:09.280Z,7.20
2022-09-23T02:10:09.688Z,5.20
2022-09-23T02:11:08.699Z,5.00
2022-09-23T02:12:08.648Z,6.20
2022-09-23T02:13:08.677Z,6.00
2022-09-23T02:14:08.633Z,5.40
2022-09-23T02:15:08.662Z,7.50
2022-09-23T02:16:08.730Z,7.00
2022-09-23T02:17:08.674Z,9.80
2022-09-23T02:18:08.632Z,12.20
2022-09-23T02:19:08.592Z,10.40
2022-09-23T02:20:08.638Z,12.00
2022-09-23T02:21:08.603Z,6.90
2022-09-23T02:22:08.574Z,12.50
2022-09-23T02:23:08.560Z,6.30
2022-09-23T02:24:08.561Z,13.30
2022-09-23T02:25:08.520Z,9.70
2022-09-23T02:26:08.510Z,15.30
2022-09-23T02:27:08.561Z,12.20
2022-09-23T02:28:09.104Z,8.80
2022-09-23T02:29:08.508Z,10.90
2022-09-23T02:30:08.512Z,13.90
2022-09-23T02:31:08.457Z,11.30
2022-09-23T02:32:08.515Z,9.20
2022-09-23T02:33:08.479Z,9.10
2022-09-23T02:34:08.488Z,16.60
2022-09-23T02:35:08.459Z,14.00
2022-09-23T02:36:08.370Z,13.70
2022-09-23T02:37:08.389Z,9.90
2022-09-23T02:38:08.422Z,11.50
2022-09-23T02:39:09.116Z,9.60
2022-09-23T02:40:08.363Z,8.50
2022-09-23T02:41:08.335Z,7.30
2022-09-23T02:42:08.316Z,9.20
2022-09-23T02:43:08.421Z,8.20
2022-09-23T02:44:08.399Z,7.60
2022-09-23T02:45:08.495Z,8.00
2022-09-23T02:46:08.360Z,9.10
2022-09-23T02:47:09.113Z,7.70
2022-09-23T02:48:08.258Z,7.70
2022-09-23T02:49:08.638Z,11.70
2022-09-23T02:50:08.242Z,8.10
2022-09-23T02:51:08.444Z,7.00
2022-09-23T02:52:08.249Z,7.00
2022-09-23T02:53:08.205Z,5.50
2022-09-23T02:54:08.176Z,7.50
2022-09-23T02:55:08.202Z,8.20
2022-09-23T02:56:08.231Z,7.80
2022-09-23T02:57:08.251Z,8.10
2022-09-23T02:58:08.162Z,8.40
2022-09-23T02:59:08.157Z,7.20
2022-09-23T03:00:08.182Z,10.90
2022-09-23T03:01:08.190Z,9.70
2022-09-23T03:02:08.170Z,8.90
2022-09-23T03:03:08.339Z,10.00
2022-09-23T03:04:08.052Z,10.00
2022-09-23T03:05:08.062Z,7.60
2022-09-23T03:06:08.028Z,9.10
2022-09-23T03:07:08.103Z,10.90
2022-09-23T03:08:08.014Z,14.40
2022-09-23T03:09:08.081Z,18.10
2022-09-23T03:10:07.978Z,17.60
2022-09-23T03:11:08.007Z,17.30
2022-09-23T03:12:07.975Z,20.40
2022-09-23T03:13:07.967Z,23.30
2022-09-23T03:14:07.947Z,26.90
2022-09-23T03:15:07.962Z,29.40
2022-09-23T03:16:07.985Z,23.90
2022-09-23T03:17:08.700Z,30.10
2022-09-23T03:18:07.901Z,24.60
2022-09-23T03:19:07.907Z,24.40
2022-09-23T03:20:07.877Z,22.20
2022-09-23T03:21:07.899Z,22.70
2022-09-23T03:22:07.864Z,27.90
2022-09-23T03:23:07.876Z,30.40
2022-09-23T03:24:07.837Z,25.90
2022-09-23T03:25:07.840Z,26.20
2022-09-23T03:26:07.868Z,16.10
2022-09-23T03:27:07.840Z,15.60
2022-09-23T03:28:07.763Z,13.80
2022-09-23T03:29:07.779Z,12.70
2022-09-23T03:30:07.764Z,9.10
2022-09-23T03:31:07.888Z,10.40
2022-09-23T03:32:07.785Z,11.40
2022-09-23T03:33:07.762Z,9.60
2022-09-23T03:34:07.756Z,10.70
2022-09-23T03:35:07.706Z,9.00
2022-09-23T03:36:07.712Z,8.20
2022-09-23T03:37:07.692Z,13.20
2022-09-23T03:38:07.684Z,11.00
2022-09-23T03:39:07.758Z,11.40
2022-09-23T03:40:07.739Z,12.10
2022-09-23T03:41:07.661Z,16.00
2022-09-23T03:42:07.668Z,16.90
2022-09-23T03:43:07.612Z,11.40
2022-09-23T03:44:07.612Z,12.00
2022-09-23T03:45:07.628Z,17.40
2022-09-23T03:46:07.655Z,13.90
2022-09-23T03:47:07.655Z,9.10
2022-09-23T03:48:07.580Z,20.60
2022-09-23T03:49:07.568Z,14.40
2022-09-23T03:50:07.556Z,15.70
2022-09-23T03:51:07.529Z,15.80
2022-09-23T03:52:07.559Z,16.50
2022-09-23T03:53:07.484Z,13.50
2022-09-23T03:54:07.539Z,10.20
2022-09-23T03:55:07.515Z,16.90
2022-09-23T03:56:07.456Z,13.70
2022-09-23T03:57:07.509Z,15.70
2022-09-23T03:58:07.469Z,19.00
2022-09-23T03:59:07.469Z,16.40
2022-09-23T04:00:07.422Z,13.90
2022-09-23T04:01:07.488Z,15.10
2022-09-23T04:02:07.475Z,9.90
2022-09-23T04:03:11.587Z,6.30
2022-09-23T04:04:08.446Z,12.60
2022-09-23T04:05:07.393Z,9.10
2022-09-23T04:06:07.413Z,10.20
2022-09-23T04:07:07.357Z,9.20
2022-09-23T04:08:07.377Z,8.20
2022-09-23T04:09:07.339Z,12.80
2022-09-23T04:10:07.329Z,8.50
2022-09-23T04:11:07.298Z,12.40
2022-09-23T04:12:07.315Z,15.10
2022-09-23T04:13:07.330Z,10.20
2022-09-23T04:14:07.293Z,8.80
2022-09-23T04:15:07.278Z,9.30
2022-09-23T04:16:07.306Z,7.60
2022-09-23T04:17:07.258Z,10.70
2022-09-23T04:18:07.285Z,11.00
2022-09-23T04:19:11.357Z,12.70
2022-09-23T04:20:08.254Z,10.20
2022-09-23T04:21:07.220Z,9.90
2022-09-23T04:22:07.203Z,10.10
2022-09-23T04:23:07.674Z,9.80
2022-09-23T04:24:07.281Z,12.20
2022-09-23T04:25:07.191Z,9.60
2022-09-23T04:26:07.140Z,12.40
2022-09-23T04:27:07.145Z,10.00
2022-09-23T04:28:07.133Z,10.00
2022-09-23T04:29:07.243Z,14.20
2022-09-23T04:30:07.191Z,11.00
2022-09-23T04:31:07.117Z,11.60
2022-09-23T04:32:07.106Z,12.40
2022-09-23T04:33:07.097Z,15.40
2022-09-23T04:34:07.095Z,14.50
2022-09-23T04:35:07.030Z,11.10
2022-09-23T04:36:07.039Z,18.20
2022-09-23T04:37:07.034Z,18.10
2022-09-23T04:38:07.052Z,13.70
2022-09-23T04:39:07.108Z,11.20
2022-09-23T04:40:06.976Z,12.00
2022-09-23T04:41:06.985Z,13.00
2022-09-23T04:42:06.983Z,12.80
2022-09-23T04:43:09.551Z,13.20
2022-09-23T04:44:06.957Z,11.80
2022-09-23T04:45:06.947Z,10.10
2022-09-23T04:46:06.915Z,10.60
2022-09-23T04:47:07.029Z,10.60
2022-09-23T04:48:06.903Z,7.20
2022-09-23T04:49:06.986Z,12.90
2022-09-23T04:50:06.887Z,10.80
2022-09-23T04:51:06.873Z,10.90
2022-09-23T04:52:06.873Z,8.00
2022-09-23T04:53:06.877Z,10.80
2022-09-23T04:54:06.840Z,9.30
2022-09-23T04:55:10.522Z,8.60
2022-09-23T04:56:07.843Z,8.30
2022-09-23T04:57:06.791Z,8.00
2022-09-23T04:58:06.779Z,14.90
2022-09-23T04:59:06.959Z,15.00
2022-09-23T05:00:06.794Z,10.90
2022-09-23T05:01:06.802Z,11.30
2022-09-23T05:02:06.830Z,18.90
2022-09-23T05:03:06.724Z,10.00
2022-09-23T05:04:06.712Z,17.80
2022-09-23T05:05:06.720Z,15.60
2022-09-23T05:06:06.724Z,14.20
2022-09-23T05:07:06.732Z,18.10
2022-09-23T05:08:06.699Z,17.20
2022-09-23T05:09:06.826Z,19.40
2022-09-23T05:10:06.684Z,16.70
2022-09-23T05:11:06.639Z,17.50
2022-09-23T05:12:06.658Z,19.40
2022-09-23T05:13:06.639Z,15.80
2022-09-23T05:14:06.602Z,17.40
2022-09-23T05:15:06.591Z,20.50
2022-09-23T05:16:06.664Z,27.70
2022-09-23T05:17:06.588Z,26.10
2022-09-23T05:18:06.592Z,12.40
2022-09-23T05:19:06.719Z,18.00
2022-09-23T05:20:06.556Z,18.50
2022-09-23T05:21:06.534Z,14.30
2022-09-23T05:22:06.493Z,20.50
2022-09-23T05:23:06.517Z,14.90
2022-09-23T05:24:06.593Z,14.70
2022-09-23T05:25:07.495Z,16.10
2022-09-23T05:26:06.501Z,11.00
2022-09-23T05:27:06.473Z,16.20
2022-09-23T05:28:06.489Z,21.50
2022-09-23T05:29:06.557Z,13.70
2022-09-23T05:30:06.438Z,11.00
2022-09-23T05:31:07.192Z,7.70
2022-09-23T05:32:06.474Z,9.90
2022-09-23T05:33:06.403Z,10.00
2022-09-23T05:34:06.376Z,10.40
2022-09-23T05:35:06.480Z,8.90
2022-09-23T05:36:06.375Z,10.20
2022-09-23T05:37:06.348Z,8.60
2022-09-23T05:38:06.410Z,12.50
2022-09-23T05:39:06.556Z,10.80
2022-09-23T05:40:06.394Z,10.10
2022-09-23T05:41:06.339Z,7.70
2022-09-23T05:42:06.291Z,10.90
2022-09-23T05:43:06.307Z,8.10
2022-09-23T05:44:06.316Z,10.20
2022-09-23T05:45:06.283Z,6.30
2022-09-23T05:46:08.381Z,9.30
2022-09-23T05:47:07.329Z,10.10
2022-09-23T05:48:06.255Z,10.10
2022-09-23T05:49:06.282Z,6.40
2022-09-23T05:50:06.232Z,11.00
2022-09-23T05:51:06.223Z,7.20
2022-09-23T05:52:06.200Z,8.50
2022-09-23T05:53:06.216Z,8.40
2022-09-23T05:54:06.255Z,7.50
2022-09-23T05:55:06.159Z,6.10
2022-09-23T05:56:06.210Z,7.40
2022-09-23T05:57:06.177Z,9.20
2022-09-23T05:58:06.143Z,6.80
2022-09-23T05:59:06.190Z,9.50
2022-09-23T06:00:06.164Z,9.50
2022-09-23T06:01:06.137Z,8.20
2022-09-23T06:02:06.197Z,9.10
2022-09-23T06:03:06.253Z,7.40
2022-09-23T06:04:06.210Z,9.70
2022-09-23T06:05:06.052Z,6.60
2022-09-23T06:06:06.125Z,6.20
2022-09-23T06:07:06.069Z,8.10
2022-09-23T06:08:06.031Z,9.00
2022-09-23T06:09:06.103Z,11.80
2022-09-23T06:10:06.036Z,14.80
2022-09-23T06:11:05.997Z,10.30
2022-09-23T06:12:05.960Z,11.00
2022-09-23T06:13:05.969Z,8.90
2022-09-23T06:14:06.071Z,5.50
2022-09-23T06:15:06.024Z,12.40
2022-09-23T06:16:06.103Z,11.70
2022-09-23T06:17:05.894Z,10.20
2022-09-23T06:18:05.956Z,12.30
2022-09-23T06:19:07.149Z,10.20
2022-09-23T06:20:05.945Z,11.00
2022-09-23T06:21:05.888Z,8.90
2022-09-23T06:22:05.925Z,11.60
2022-09-23T06:23:09.248Z,9.80
2022-09-23T06:24:07.153Z,9.60
2022-09-23T06:25:05.887Z,14.70
2022-09-23T06:26:05.831Z,14.50
2022-09-23T06:27:05.854Z,10.00
2022-09-23T06:28:05.798Z,8.10
2022-09-23T06:29:05.902Z,11.80
2022-09-23T06:30:05.794Z,10.60
2022-09-23T06:31:09.613Z,11.80
2022-09-23T06:32:05.754Z,10.20
2022-09-23T06:33:05.734Z,7.40
2022-09-23T06:34:11.463Z,10.60
2022-09-23T06:35:18.484Z,7.50
2022-09-23T06:36:06.730Z,9.80
2022-09-23T06:37:15.254Z,9.20
2022-09-23T06:38:07.698Z,7.90
2022-09-23T06:39:05.685Z,10.40
2022-09-23T06:40:05.757Z,7.70
2022-09-23T06:41:05.639Z,7.20
2022-09-23T06:42:05.671Z,6.70
2022-09-23T06:43:05.663Z,10.30
2022-09-23T06:44:05.727Z,8.70
2022-09-23T06:45:05.619Z,10.00
2022-09-23T06:46:05.629Z,13.00
2022-09-23T06:47:05.567Z,11.70
2022-09-23T06:48:05.584Z,10.00
2022-09-23T06:49:05.578Z,8.90
2022-09-23T06:50:05.576Z,13.20
2022-09-23T06:51:05.561Z,8.40
2022-09-23T06:52:06.622Z,13.80
2022-09-23T06:53:05.525Z,10.00
2022-09-23T06:54:05.633Z,8.00
2022-09-23T06:55:05.498Z,9.00
2022-09-23T06:56:05.491Z,9.20
2022-09-23T06:57:05.463Z,6.80
2022-09-23T06:58:05.471Z,8.40
2022-09-23T06:59:05.498Z,8.80
2022-09-23T07:00:05.454Z,7.30
2022-09-23T07:01:05.428Z,9.50
2022-09-23T07:02:05.538Z,12.50
2022-09-23T07:03:05.480Z,8.90
2022-09-23T07:04:05.508Z,11.70
2022-09-23T07:05:05.385Z,6.70
2022-09-23T07:06:05.466Z,11.80
2022-09-23T07:07:05.347Z,10.30
2022-09-23T07:08:05.345Z,9.70
2022-09-23T07:09:05.390Z,11.50
2022-09-23T07:10:05.417Z,8.30
2022-09-23T07:11:05.309Z,10.60
2022-09-23T07:12:05.301Z,6.60
2022-09-23T07:13:05.298Z,12.60
2022-09-23T07:14:05.304Z,11.70
2022-09-23T07:15:05.286Z,9.30
2022-09-23T07:16:05.316Z,7.60
2022-09-23T07:17:05.325Z,10.30
2022-09-23T07:18:05.277Z,8.70
2022-09-23T07:19:05.343Z,12.00
2022-09-23T07:20:05.250Z,6.20
2022-09-23T07:21:05.584Z,11.90
2022-09-23T07:22:05.190Z,8.10
2022-09-23T07:23:05.190Z,14.00
2022-09-23T07:24:05.235Z,9.50
2022-09-23T07:25:05.134Z,10.60
2022-09-23T07:26:05.130Z,14.10
2022-09-23T07:27:05.156Z,8.10
2022-09-23T07:28:05.139Z,6.80
2022-09-23T07:29:05.328Z,10.50
2022-09-23T07:30:05.543Z,9.40
2022-09-23T07:31:05.132Z,9.90
2022-09-23T07:32:12.834Z,7.90
2022-09-23T07:33:24.511Z,9.70
2022-09-23T07:34:07.190Z,11.40
2022-09-23T07:35:05.062Z,7.10
2022-09-23T07:36:05.036Z,7.30
2022-09-23T07:37:05.028Z,6.60
2022-09-23T07:38:05.019Z,10.60
2022-09-23T07:39:05.016Z,8.10
2022-09-23T07:40:05.033Z,8.70
2022-09-23T07:41:05.013Z,8.70
2022-09-23T07:42:04.979Z,7.90
2022-09-23T07:43:04.972Z,6.20
2022-09-23T07:44:04.995Z,7.20
2022-09-23T07:45:04.968Z,7.50
2022-09-23T07:46:05.047Z,8.10
2022-09-23T07:47:04.907Z,8.90
2022-09-23T07:48:04.923Z,7.50
2022-09-23T07:49:05.039Z,11.00
2022-09-23T07:50:04.923Z,7.00
2022-09-23T07:51:04.917Z,8.00
2022-09-23T07:52:04.881Z,7.20
2022-09-23T07:53:04.860Z,7.40
2022-09-23T07:54:04.872Z,8.40
2022-09-23T07:55:04.892Z,7.00
2022-09-23T07:56:04.841Z,8.00
2022-09-23T07:57:04.852Z,9.00
2022-09-23T07:58:04.780Z,9.90
2022-09-23T07:59:04.781Z,6.40
2022-09-23T08:00:04.820Z,9.30
2022-09-23T08:01:04.792Z,7.50
2022-09-23T08:02:04.825Z,8.00
2022-09-23T08:03:04.846Z,8.30
2022-09-23T08:04:04.779Z,6.80
2022-09-23T08:05:04.719Z,6.30
2022-09-23T08:06:04.746Z,6.90
2022-09-23T08:07:04.721Z,5.60
2022-09-23T08:08:04.717Z,6.60
2022-09-23T08:09:04.689Z,6.10
2022-09-23T08:10:04.695Z,8.80
2022-09-23T08:11:04.673Z,8.60
2022-09-23T08:12:04.667Z,8.40
2022-09-23T08:13:04.671Z,9.20
2022-09-23T08:14:04.748Z,7.70
2022-09-23T08:15:04.618Z,6.10
2022-09-23T08:16:04.872Z,7.70
2022-09-23T08:17:04.602Z,7.10
2022-09-23T08:18:04.578Z,5.10
2022-09-23T08:20:05.556Z,5.90
2022-09-23T08:21:04.575Z,6.90
2022-09-23T08:22:04.574Z,7.20
2022-09-23T08:23:04.559Z,6.10
2022-09-23T08:24:04.510Z,8.20
2022-09-23T08:25:06.870Z,9.60
2022-09-23T08:26:04.515Z,8.60
2022-09-23T08:27:04.494Z,5.20
2022-09-23T08:28:04.487Z,9.70
2022-09-23T08:29:04.459Z,7.20
2022-09-23T08:30:04.474Z,6.10
2022-09-23T08:31:04.455Z,9.40
2022-09-23T08:32:04.462Z,6.00
2022-09-23T08:33:04.451Z,7.30
2022-09-23T08:34:04.458Z,5.50
2022-09-23T08:35:04.414Z,10.30
2022-09-23T08:36:04.463Z,6.50
2022-09-23T08:37:04.378Z,7.70
2022-09-23T08:38:04.391Z,6.00
2022-09-23T08:39:04.374Z,5.90
2022-09-23T08:40:04.419Z,7.00
2022-09-23T08:41:04.375Z,6.90
2022-09-23T08:42:04.322Z,5.20
2022-09-23T08:43:04.334Z,5.30
2022-09-23T08:44:04.328Z,6.40
2022-09-23T08:45:04.323Z,7.80
2022-09-23T08:46:05.228Z,8.40
2022-09-23T08:47:04.327Z,5.60
2022-09-23T08:48:04.267Z,4.60
2022-09-23T08:49:04.281Z,7.80
2022-09-23T08:50:04.257Z,8.30
2022-09-23T08:51:04.244Z,5.40
2022-09-23T08:52:04.251Z,5.30
2022-09-23T08:53:04.223Z,7.10
2022-09-23T08:54:04.203Z,4.80
2022-09-23T08:55:04.188Z,6.40
2022-09-23T08:56:04.203Z,4.90
2022-09-23T08:57:04.191Z,6.70
2022-09-23T08:58:26.769Z,5.90
2022-09-23T08:59:06.177Z,5.70
2022-09-23T09:00:04.269Z,6.70
2022-09-23T09:01:04.206Z,4.20
2022-09-23T09:02:04.121Z,4.40
2022-09-23T09:03:04.105Z,6.80
2022-09-23T09:04:04.078Z,4.80
2022-09-23T09:05:04.137Z,5.90
2022-09-23T09:06:04.093Z,13.00
2022-09-23T09:07:31.641Z,13.80
2022-09-23T09:08:06.062Z,4.90
2022-09-23T09:09:04.070Z,4.90
2022-09-23T09:10:04.133Z,5.40
2022-09-23T09:11:04.022Z,4.30
2022-09-23T09:12:04.074Z,6.10
2022-09-23T09:13:03.998Z,6.70
2022-09-23T09:14:03.974Z,4.80
2022-09-23T09:15:04.078Z,6.00
2022-09-23T09:16:04.023Z,5.00
2022-09-23T09:17:04.044Z,4.00
2022-09-23T09:18:03.996Z,5.60
2022-09-23T09:19:03.967Z,5.60
2022-09-23T09:20:03.938Z,5.20
2022-09-23T09:21:03.922Z,8.10
2022-09-23T09:22:03.911Z,6.00
2022-09-23T09:23:03.899Z,7.40
2022-09-23T09:24:03.884Z,5.70
2022-09-23T09:25:03.877Z,5.30
2022-09-23T09:26:03.870Z,5.60
2022-09-23T09:27:03.844Z,6.30
2022-09-23T09:28:03.966Z,9.70
2022-09-23T09:29:23.770Z,6.00
2022-09-23T09:30:05.899Z,6.80
2022-09-23T09:31:03.838Z,5.90
2022-09-23T09:32:03.830Z,5.20
2022-09-23T09:33:03.839Z,5.60
2022-09-23T09:34:03.775Z,8.60
2022-09-23T09:35:03.758Z,9.00
2022-09-23T09:36:03.723Z,6.10
2022-09-23T09:37:06.989Z,4.90
2022-09-23T09:38:04.709Z,6.50
2022-09-23T09:39:03.757Z,6.40
2022-09-23T09:40:03.807Z,6.60
2022-09-23T09:41:03.658Z,7.50
2022-09-23T09:42:03.665Z,5.00
2022-09-23T09:43:03.645Z,7.30
2022-09-23T09:44:03.648Z,10.30
2022-09-23T09:45:03.649Z,5.90
2022-09-23T09:46:03.634Z,6.90
2022-09-23T09:47:03.893Z,5.40
2022-09-23T09:48:03.646Z,5.00
2022-09-23T09:49:03.678Z,4.90
2022-09-23T09:50:03.622Z,6.20
2022-09-23T09:51:03.589Z,4.60
2022-09-23T09:52:03.614Z,7.90
2022-09-23T09:53:03.545Z,7.70
2022-09-23T09:54:03.517Z,4.80
2022-09-23T09:55:03.458Z,4.70
2022-09-23T09:56:05.407Z,5.70
2022-09-23T09:57:03.488Z,7.00
2022-09-23T09:58:03.484Z,7.70
2022-09-23T09:59:03.466Z,5.40
2022-09-23T10:00:03.573Z,5.30
2022-09-23T10:01:03.454Z,9.30
2022-09-23T10:02:03.390Z,6.60
2022-09-23T10:03:03.486Z,4.90
2022-09-23T10:04:04.508Z,4.20
2022-09-23T10:05:03.388Z,6.20
2022-09-23T10:06:03.424Z,3.70
2022-09-23T10:07:03.394Z,7.00
2022-09-23T10:08:03.319Z,4.90
2022-09-23T10:09:03.394Z,3.60
2022-09-23T10:10:15.967Z,6.20
2022-09-23T10:11:05.623Z,7.80
2022-09-23T10:12:03.318Z,5.10
2022-09-23T10:13:03.309Z,4.40
2022-09-23T10:14:03.260Z,3.40
2022-09-23T10:15:03.370Z,5.50
2022-09-23T10:16:03.228Z,8.10
2022-09-23T10:17:03.273Z,6.90
2022-09-23T10:18:03.190Z,9.20
2022-09-23T10:19:03.288Z,6.70
2022-09-23T10:20:03.253Z,6.20
2022-09-23T10:21:03.165Z,4.00
2022-09-23T10:22:03.201Z,7.10
2022-09-23T10:23:03.186Z,4.10
2022-09-23T10:24:04.154Z,7.10
2022-09-23T10:25:03.265Z,5.20
2022-09-23T10:26:03.118Z,6.70
2022-09-23T10:27:03.115Z,10.70
2022-09-23T10:28:07.869Z,3.70
2022-09-23T10:29:04.182Z,3.60
2022-09-23T10:30:03.269Z,4.40
2022-09-23T10:31:03.152Z,4.40
2022-09-23T10:32:03.055Z,5.50
2022-09-23T10:33:03.075Z,4.80
2022-09-23T10:34:03.002Z,3.30
2022-09-23T10:35:03.040Z,5.10
2022-09-23T10:36:03.904Z,5.00
2022-09-23T10:37:02.998Z,5.70
2022-09-23T10:38:03.012Z,6.10
2022-09-23T10:39:03.055Z,4.30
2022-09-23T10:40:02.983Z,3.50
2022-09-23T10:41:03.161Z,3.80
2022-09-23T10:42:02.936Z,4.70
2022-09-23T10:43:02.920Z,6.80
2022-09-23T10:44:03.011Z,5.10
2022-09-23T10:45:02.931Z,9.50
2022-09-23T10:46:02.982Z,6.50
2022-09-23T10:47:03.034Z,4.10
2022-09-23T10:48:03.068Z,5.20
2022-09-23T10:49:02.888Z,5.70
2022-09-23T10:50:02.908Z,5.80
2022-09-23T10:51:02.845Z,5.10
2022-09-23T10:52:02.854Z,7.10
2022-09-23T10:53:02.822Z,3.90
2022-09-23T10:54:03.998Z,5.30
2022-09-23T10:55:02.802Z,6.40
2022-09-23T10:56:02.782Z,13.20
2022-09-23T10:57:02.904Z,5.10
2022-09-23T10:58:02.819Z,5.60
2022-09-23T10:59:02.765Z,4.30
2022-09-23T11:00:02.848Z,7.80
2022-09-23T11:01:02.937Z,5.00
2022-09-23T11:02:02.734Z,3.70
2022-09-23T11:03:02.729Z,3.50
2022-09-23T11:04:02.847Z,5.30
2022-09-23T11:05:02.792Z,3.40
2022-09-23T11:06:02.700Z,6.70
2022-09-23T11:07:02.713Z,4.20
2022-09-23T11:08:02.655Z,6.00
2022-09-23T11:09:02.676Z,6.30
2022-09-23T11:10:02.676Z,5.40
2022-09-23T11:11:02.691Z,5.40
2022-09-23T11:12:02.615Z,4.60
2022-09-23T11:13:02.647Z,4.90
2022-09-23T11:14:02.578Z,5.80
2022-09-23T11:15:02.672Z,5.40
2022-09-23T11:16:02.636Z,6.70
2022-09-23T11:17:02.639Z,4.60
2022-09-23T11:18:02.576Z,4.60
2022-09-23T11:19:02.534Z,7.30
2022-09-23T11:20:02.601Z,5.60
2022-09-23T11:21:02.517Z,7.40
2022-09-23T11:23:35.293Z,4.20
2022-09-23T11:24:47.917Z,3.00
2022-09-23T11:26:35.135Z,3.70
2022-09-23T11:27:35.106Z,4.00
2022-09-23T11:28:35.112Z,7.00
2022-09-23T11:29:35.148Z,4.30
2022-09-23T11:30:35.164Z,5.80
2022-09-23T11:31:35.127Z,4.90
2022-09-23T11:32:35.077Z,6.70
2022-09-23T11:33:35.102Z,3.40
2022-09-23T11:34:35.026Z,6.60
2022-09-23T11:35:35.045Z,4.00
2022-09-23T11:36:35.053Z,3.20
2022-09-23T11:37:35.031Z,5.00
2022-09-23T11:38:34.983Z,8.60
2022-09-23T11:39:35.038Z,6.40
2022-09-23T11:40:35.131Z,4.20
2022-09-23T11:41:34.941Z,5.40
2022-09-23T11:42:35.021Z,5.20
2022-09-23T11:43:34.988Z,6.90
2022-09-23T11:44:35.016Z,4.10
2022-09-23T11:45:35.024Z,6.10
2022-09-23T11:46:35.178Z,7.30
2022-09-23T11:47:39.014Z,6.90
2022-09-23T11:48:35.917Z,4.30
2022-09-23T11:49:34.845Z,4.50
2022-09-23T11:50:34.981Z,5.70
2022-09-23T11:51:35.874Z,4.20
2022-09-23T11:52:34.828Z,5.20
2022-09-23T11:53:34.902Z,5.80
2022-09-23T11:54:34.847Z,7.00
2022-09-23T11:55:34.810Z,5.20
2022-09-23T11:56:36.621Z,7.30
2022-09-23T11:57:47.072Z,8.50
2022-09-23T11:58:36.885Z,5.80
2022-09-23T11:59:39.939Z,6.30
2022-09-23T12:00:36.772Z,5.80
2022-09-23T12:01:37.900Z,5.80
2022-09-23T12:02:35.831Z,8.20
2022-09-23T12:03:43.499Z,5.00
2022-09-23T12:04:41.597Z,5.40
2022-09-23T12:05:34.897Z,7.80
2022-09-23T12:06:34.684Z,6.20
2022-09-23T12:07:34.662Z,7.10
2022-09-23T12:08:34.675Z,6.00
2022-09-23T12:09:57.120Z,6.20
2022-09-23T12:10:36.680Z,5.30
2022-09-23T12:11:34.632Z,4.40
2022-09-23T12:12:34.648Z,4.70
2022-09-23T12:13:34.585Z,8.10
2022-09-23T12:14:34.748Z,5.70
2022-09-23T12:15:34.581Z,6.20
2022-09-23T12:16:34.685Z,6.40
2022-09-23T12:17:34.545Z,7.60
2022-09-23T12:18:34.539Z,8.10
2022-09-23T12:19:34.559Z,4.50
2022-09-23T12:20:34.610Z,8.50
2022-09-23T12:21:51.313Z,6.50
2022-09-23T12:22:36.537Z,3.80
2022-09-23T12:23:34.862Z,4.80
2022-09-23T12:24:34.553Z,7.50
2022-09-23T12:25:34.479Z,5.60
2022-09-23T12:26:34.777Z,6.00
2022-09-23T12:27:34.446Z,5.50
2022-09-23T12:28:34.447Z,6.70
2022-09-23T12:29:34.520Z,5.30
2022-09-23T12:30:34.524Z,5.20
2022-09-23T12:31:37.548Z,5.60
2022-09-23T12:32:35.506Z,6.20
2022-09-23T12:33:34.502Z,8.20
2022-09-23T12:34:34.452Z,4.70
2022-09-23T12:35:34.393Z,4.80
2022-09-23T12:36:34.369Z,4.50
2022-09-23T12:37:34.420Z,3.60
2022-09-23T12:38:34.332Z,5.80
2022-09-23T12:39:34.293Z,4.50
2022-09-23T12:40:34.350Z,6.30
2022-09-23T12:41:35.475Z,6.50
2022-09-23T12:42:34.358Z,3.40
2022-09-23T12:43:34.342Z,6.80
2022-09-23T12:44:35.310Z,6.90
2022-09-23T12:45:34.435Z,6.50
2022-09-23T12:46:34.435Z,5.60
2022-09-23T12:47:34.272Z,5.50
2022-09-23T12:48:34.259Z,4.70
2022-09-23T12:49:34.334Z,6.50
2022-09-23T12:50:34.244Z,7.40
2022-09-23T12:51:34.195Z,7.40
2022-09-23T12:52:34.220Z,6.90
2022-09-23T12:53:34.207Z,4.60
2022-09-23T12:54:49.593Z,5.90
2022-09-23T12:55:34.249Z,6.20
2022-09-23T12:56:34.163Z,5.80
2022-09-23T12:57:34.184Z,4.40
2022-09-23T12:58:34.108Z,4.30
2022-09-23T12:59:34.110Z,3.70
2022-09-23T13:00:34.495Z,7.40
2022-09-23T13:01:35.208Z,5.90
2022-09-23T13:02:34.167Z,8.00
2022-09-23T13:03:34.156Z,6.10
2022-09-23T13:04:34.957Z,5.10
2022-09-23T13:05:34.060Z,4.80
2022-09-23T13:06:34.098Z,6.20
2022-09-23T13:07:34.034Z,4.20
2022-09-23T13:08:34.058Z,3.60
2022-09-23T13:09:34.025Z,7.10
2022-09-23T13:10:33.990Z,5.90
2022-09-23T13:11:33.974Z,4.00
2022-09-23T13:12:33.967Z,7.20
2022-09-23T13:13:33.979Z,3.40
2022-09-23T13:14:33.942Z,4.50